AWG-1

EHMA · Friesland, 荷兰

罗盘
风向 的 风向 的 风向 到 风向 200° 直升机
风: 20 kt, 5 beaufort
0 1.000 2.000 3.000 4.000 5.000
垂直能见度
METAR EHMA 091455Z AUTO 20020KT 170V240 0250 DZ VV000 01/01 Q1004

METAR AWG-1 - EHMA

AWG-1是,荷兰中的直升机场。 该领域的国际民航组织标志是EHMA.

这份报告是针对2022年12月9日 15:55, 当地时间在AWG-1进行的。

机场观察

风向为200°,速度为20 kt。 风向在170°和240°之间变化。

可见度为250 m。

垂直能见度为0 ft 没有观察到天花板。

当前天气为细雨。 温度为1 °C,阵风为-8 °C。 露点为1 °C,相对湿度为100%。 海平面上的气压为1004 hPa (QNH)。

白天

今天,太阳从08:39升起,在16:17降落。 这适用于AWG-1,世界夏令时可能有所不同。 当地时间与世界标准时间之间的时差为+1 小时。 当前,没有夏令时有效。

公司介绍

我们没有关于这个机场的公司信息。

体会

到Vliegles.nl去找飞行课程,跳伞和其他飞行体验。 浏览页面,了解AWG-1附近所有可用的活动。 你也可以使用搜索功能来寻找你所在地附近的特定飞行课程、跳伞或其他飞行体验。

警示语

垂直能见度为0 ft。

乌云

0 ft VV 垂直能见度

温度 & 天气

天气 细雨
温度 1 °C
露点 1 °C
相对湿度 100%
风寒 -8 °C
Kp-index 0 (0-9)

白天

日出
08:39 (16:22)
中午
12:28
日落
16:17

小工具

你想在你的网站上有一个关于AWG-1的当前航空天气(METAR)的小部件吗?

显示HTML代码

我们和第三方通过cookies跟踪您在我们网站上的互联网行为。如果你继续,我们认为你同意我们的饼干政策